Ankara, Turkey

02:29 +03 le 18 janvier 2017 (GMT +0300)
Esenboga | | Change Station

Alt. 3114 ft 40.12 °N, 33.00 °E | Updated 39 minutes ago

Overcast
Couvert
32 ° F
Paraît 29 ° F
N
4
Vent Variable Vent de Ouest

Aujourd'hui
Haut(e) -- | Bas -- ° F
--% Risque de précip.
Hier
Haut(e) -- | Bas -- ° F
Precip. -- pouce
Pression 30.06 pouce
Visibilité 1.0 Miles terrestres
Nuages Nuageux 3000 ft
Couvert 8000 ft
Refroidissement éolien 29 ° F
Point de rosée 32 ° F
Humidité 100%
Précipitations 0.00 pouce
Profondeur de la couche neigeuse Non disponible.
8:06 AM 5:50 PM
Lune gibbeuse décroissante, 69% visible
METAR LTAC 172250Z 26003KT 3600 1600SE BR BKN030 OVC080 00/M00 Q1018 BECMG 2500 RMK RWY21L 00000KT RWY03L 26003KT RWY21R 27002KT
Pression 30.06 pouce
Visibilité 1.0 Miles terrestres
Nuages Nuageux 3000 ft
Couvert 8000 ft
Refroidissement éolien 29 ° F
Point de rosée 32 ° F
Humidité 100%
Précipitations 0.00 pouce
Profondeur de la couche neigeuse Non disponible.
8:06 AM 5:50 PM
Lune gibbeuse décroissante, 69% visible
METAR LTAC 172250Z 26003KT 3600 1600SE BR BKN030 OVC080 00/M00 Q1018 BECMG 2500 RMK RWY21L 00000KT RWY03L 26003KT RWY21R 27002KT

Get Your Daily Forecast Email!

Thanks for signing up!

Be on the lookout for a verification email in your inbox.

You'll start receiving the daily forecast at 8 AM.

×

10-Day Weather Forecast

×

Almanac

Astronomie

Jan. 18, 2017 Lever Coucher
Temps réel
Crépuscule civil
Crépuscule nautique
Crépuscule astronomique
Lune
Durée de lumière visible
Longueur du jour
Tomorrow will be .
, % of the Moon is Illuminated

Extrêmes aujourd'hui

Country Highs Country Lows

Community

WunderPhotos

Upload Photos

1,962,540 Photos téléchargées !

WunderBlog® & News

Nearby

Qualité de l'air

  Qualité de l'air Indice de la qualité de l'air Polluant
Not available.

Épaisseur de neige

Station Depth Altitude

Activité sismique

Ville Distance Mag. Time & Date
Minimum magnitude displayed is 2.5.

Températures des eaux côtières

Lieu Température

Stations

Stations météo à proximité

Emplacement de la station Température Refroidissement éolien Point de rosée Humidité Vent Precip. Alt. Mise à jour Type